Time;durP1;ratioP1;P1;durP2;ratioP2;P2;SDS_P1;SDS_P2;PMS_P1;PMS_P2;Temp;Humidity;BMP_temperature;BMP_pressure;BME280_temperature;BME280_humidity;BME280_pressure;Samples;Min_cycle;Max_cycle;Signal;HPM_P1;HPM_P2
2023/04/09 00:01:13;;;;;;;;;;;;;;;9.75;68.60;98824.75;5006832;28;19925;-60
2023/04/09 00:03:39;;;;;;;;;;;;;;;9.73;68.49;98821.38;5002026;28;19917;-60
2023/04/09 00:06:04;;;;;;;;;;;;;;;9.75;68.74;98816.06;5007368;28;19914;-60
2023/04/09 00:08:29;;;;;;;;;;;;;;;9.75;68.69;98814.28;5002224;28;19918;-60
2023/04/09 00:10:55;;;;;;;;;;;;;;;9.74;68.82;98827.47;5012314;28;19922;-60
2023/04/09 00:13:21;;;;;;;;;;;;;;;9.55;67.24;98814.53;4992343;28;20021;-60
2023/04/09 00:15:46;;;;;;;;;;;;;;;9.35;68.47;98814.75;5007420;28;20383;-60
2023/04/09 00:18:11;;;;;;;;;;;;;;;9.36;69.68;98809.47;5008768;28;19918;-60
2023/04/09 00:20:36;;;;;;;;;;;;;;;9.44;70.32;98814.28;5009284;28;19991;-60
2023/04/09 00:23:02;;;;;;;;;;;;;;;9.49;69.83;98812.25;5006361;28;19925;-60
2023/04/09 00:25:27;;;;;;;;;;;;;;;9.55;70.00;98806.69;4987723;28;20508;-60
2023/04/09 00:27:53;;;;;;;;;;;;;;;9.60;69.51;98809.91;5006060;28;20371;-60
2023/04/09 00:30:18;;;;;;;;;;;;;;;9.59;69.64;98813.44;5006792;28;19921;-60
2023/04/09 00:32:43;;;;;;;;;;;;;;;9.61;69.55;98811.59;5013564;28;20307;-60
2023/04/09 00:35:08;;;;;;;;;;;;;;;9.64;69.64;98807.97;4992686;28;19953;-59
2023/04/09 00:37:34;;;;;;;;;;;;;;;9.66;69.95;98809.53;4997588;28;19959;-60
2023/04/09 00:39:59;;;;;;;;;;;;;;;9.64;69.97;98808.81;5003195;28;20396;-59
2023/04/09 00:42:25;;;;;;;;;;;;;;;9.64;69.15;98814.03;4991905;28;19925;-60
2023/04/09 00:44:50;;;;;;;;;;;;;;;9.65;69.96;98815.72;4988019;28;20001;-60
2023/04/09 00:47:16;;;;;;;;;;;;;;;9.66;69.77;98809.53;4996391;28;20013;-59
2023/04/09 00:49:41;;;;;;;;;;;;;;;9.64;69.61;98814.03;4999333;28;19928;-60
2023/04/09 00:52:06;;;;;;;;;;;;;;;9.60;69.63;98814.28;5014709;28;19918;-60
2023/04/09 00:54:31;;;;;;;;;;;;;;;9.61;69.82;98811.59;5014745;28;19914;-61
2023/04/09 00:56:57;;;;;;;;;;;;;;;9.62;69.73;98812.41;5000561;28;19937;-60
2023/04/09 00:59:23;;;;;;;;;;;;;;;9.60;69.70;98809.91;4996251;28;19925;-60
2023/04/09 01:01:48;;;;;;;;;;;;;;;9.50;69.47;98808.72;5014386;28;19918;-60
2023/04/09 01:04:13;;;;;;;;;;;;;;;9.43;69.70;98813.44;5013303;28;19968;-60
2023/04/09 01:06:44;;;;;;;;;;;;;;;9.45;70.07;98815.97;5003430;28;19917;-59
2023/04/09 01:09:28;;;;;;;;;;;;;;;9.47;70.36;98820.19;4991234;28;19925;-60
2023/04/09 01:12:11;;;;;;;;;;;;;;;9.44;70.48;98815.13;4994741;28;20302;-60
2023/04/09 01:14:42;;;;;;;;;;;;;;;9.43;69.58;98802.97;4981525;28;19918;-59
2023/04/09 01:17:34;;;;;;;;;;;;;;;9.43;69.84;98809.97;4986106;28;19918;-61
2023/04/09 01:20:03;;;;;;;;;;;;;;;9.41;70.26;98804.81;4930565;29;19914;-60
2023/04/09 01:22:29;;;;;;;;;;;;;;;9.38;69.92;98802.34;4896451;29;19915;-60
2023/04/09 01:25:06;;;;;;;;;;;;;;;9.37;69.92;98797.22;4896603;29;19915;-60
2023/04/09 01:27:33;;;;;;;;;;;;;;;9.34;69.32;98797.38;4892895;29;19919;-59
2023/04/09 01:29:59;;;;;;;;;;;;;;;9.20;70.09;98795.50;4898731;29;19919;-60
2023/04/09 01:32:24;;;;;;;;;;;;;;;9.21;70.55;98790.16;4918383;29;19915;-59
2023/04/09 01:34:49;;;;;;;;;;;;;;;9.27;70.80;98795.09;4918380;29;19947;-60
2023/04/09 01:37:15;;;;;;;;;;;;;;;9.30;70.48;98799.31;4910692;29;19919;-60
2023/04/09 01:39:40;;;;;;;;;;;;;;;9.33;70.58;98811.41;4913381;29;19918;-60
2023/04/09 01:42:09;;;;;;;;;;;;;;;9.34;70.69;98802.63;4913618;29;19914;-59
2023/04/09 01:44:35;;;;;;;;;;;;;;;9.36;70.44;98803.34;4917468;29;20011;-60
2023/04/09 01:47:00;;;;;;;;;;;;;;;9.34;70.35;98807.84;4915208;29;20001;-60
2023/04/09 01:49:25;;;;;;;;;;;;;;;9.28;69.83;98803.78;4920275;29;19969;-60
2023/04/09 01:51:51;;;;;;;;;;;;;;;9.23;70.79;98811.88;4896668;29;19918;-60
2023/04/09 01:54:16;;;;;;;;;;;;;;;9.22;71.06;98810.22;4933772;29;19927;-60
2023/04/09 01:56:42;;;;;;;;;;;;;;;9.20;70.55;98809.44;4970102;28;19920;-60
2023/04/09 01:59:07;;;;;;;;;;;;;;;9.20;71.25;98808.59;4993693;28;20013;-60
2023/04/09 02:01:34;;;;;;;;;;;;;;;9.25;71.46;98804.78;5000903;28;19918;-60
2023/04/09 02:04:03;;;;;;;;;;;;;;;9.24;71.36;98808.34;4991832;28;19913;-60
2023/04/09 02:06:38;;;;;;;;;;;;;;;9.27;70.85;98802.94;5012064;28;19913;-60
2023/04/09 02:09:03;;;;;;;;;;;;;;;9.25;71.07;98804.78;4999904;28;19918;-60
2023/04/09 02:11:28;;;;;;;;;;;;;;;9.25;70.77;98812.63;4999746;28;19932;-60
2023/04/09 02:13:54;;;;;;;;;;;;;;;9.22;70.67;98804.97;5007308;28;20000;-60
2023/04/09 02:16:19;;;;;;;;;;;;;;;9.24;71.08;98808.34;4987485;28;19961;-60
2023/04/09 02:18:45;;;;;;;;;;;;;;;9.27;71.17;98813.41;4988557;28;20016;-60
2023/04/09 02:21:12;;;;;;;;;;;;;;;9.28;70.96;98816.88;4982333;28;19918;-60
2023/04/09 02:23:37;;;;;;;;;;;;;;;9.24;70.78;98813.56;5004863;28;19971;-60
2023/04/09 02:26:02;;;;;;;;;;;;;;;9.24;70.78;98813.56;5013223;28;20007;-60
2023/04/09 02:28:28;;;;;;;;;;;;;;;9.23;71.15;98817.13;5007677;28;20053;-60
2023/04/09 02:30:53;;;;;;;;;;;;;;;9.21;71.18;98818.97;5002483;28;20562;-60
2023/04/09 02:33:18;;;;;;;;;;;;;;;9.23;71.54;98822.34;5002395;28;20394;-60
2023/04/09 02:35:43;;;;;;;;;;;;;;;9.22;71.58;98817.19;5006561;28;19933;-60
2023/04/09 02:38:13;;;;;;;;;;;;;;;9.21;71.34;98811.09;5008974;28;19917;-60
2023/04/09 02:40:39;;;;;;;;;;;;;;;9.13;71.00;98815.91;5004467;28;19995;-60
2023/04/09 02:43:05;;;;;;;;;;;;;;;9.12;71.04;98819.47;4987235;28;19934;-60
2023/04/09 02:45:30;;;;;;;;;;;;;;;9.15;71.31;98815.81;4996158;28;19913;-60
2023/04/09 02:47:55;;;;;;;;;;;;;;;9.12;71.02;98814.25;5009342;28;19989;-59
2023/04/09 02:50:20;;;;;;;;;;;;;;;9.08;71.16;98814.47;5004288;28;19917;-60
2023/04/09 02:52:46;;;;;;;;;;;;;;;9.03;71.53;98809.47;5002246;28;19918;-60
2023/04/09 02:55:11;;;;;;;;;;;;;;;9.01;71.71;98806.94;4990988;28;20393;-59
2023/04/09 02:57:36;;;;;;;;;;;;;;;9.00;71.48;98809.63;4990235;28;20475;-60
2023/04/09 03:00:02;;;;;;;;;;;;;;;8.96;71.90;98808.13;5000915;28;19997;-59
2023/04/09 03:02:27;;;;;;;;;;;;;;;8.86;71.26;98809.50;5000182;28;20430;-60
2023/04/09 03:04:52;;;;;;;;;;;;;;;8.82;71.21;98805.38;4988757;28;19992;-60
2023/04/09 03:07:18;;;;;;;;;;;;;;;8.74;71.33;98804.00;5002315;28;19917;-60
2023/04/09 03:09:43;;;;;;;;;;;;;;;8.71;71.77;98808.56;5004119;28;20502;-60
2023/04/09 03:12:08;;;;;;;;;;;;;;;8.70;72.07;98809.44;5012446;28;19914;-60
2023/04/09 03:14:33;;;;;;;;;;;;;;;8.71;72.28;98798.94;5003028;28;19975;-60
2023/04/09 03:16:59;;;;;;;;;;;;;;;8.69;71.74;98808.59;4997804;28;19919;-60
2023/04/09 03:19:24;;;;;;;;;;;;;;;8.62;71.03;98799.38;4997250;28;20346;-60
2023/04/09 03:21:50;;;;;;;;;;;;;;;8.59;71.71;98796.94;5000650;28;19924;-60
2023/04/09 03:24:15;;;;;;;;;;;;;;;8.57;71.05;98798.78;4991803;28;19913;-59
2023/04/09 03:26:40;;;;;;;;;;;;;;;8.42;72.30;98797.78;4996911;28;20406;-60
2023/04/09 03:29:05;;;;;;;;;;;;;;;8.43;72.42;98798.63;5001164;28;20441;-60
2023/04/09 03:31:31;;;;;;;;;;;;;;;8.43;72.19;98799.50;5003172;28;20375;-60
2023/04/09 03:33:56;;;;;;;;;;;;;;;8.43;72.32;98803.84;5001917;28;19929;-60
2023/04/09 03:36:21;;;;;;;;;;;;;;;8.44;72.27;98808.19;4993245;28;19917;-60
2023/04/09 03:38:46;;;;;;;;;;;;;;;8.40;72.08;98814.50;5000646;28;19928;-60
2023/04/09 03:41:12;;;;;;;;;;;;;;;8.39;72.94;98823.22;4999467;28;19996;-60
2023/04/09 03:43:37;;;;;;;;;;;;;;;8.36;71.86;98818.13;4992649;28;19964;-60
2023/04/09 03:46:10;;;;;;;;;;;;;;;8.31;71.66;98816.59;4990568;28;19957;-60
2023/04/09 03:48:35;;;;;;;;;;;;;;;8.29;72.13;98818.44;4992753;28;19917;-59
2023/04/09 03:51:00;;;;;;;;;;;;;;;8.26;71.87;98823.81;4998043;28;19918;-60
2023/04/09 03:53:25;;;;;;;;;;;;;;;8.23;71.87;98816.13;4993688;28;19917;-60
2023/04/09 03:55:50;;;;;;;;;;;;;;;8.19;71.69;98825.03;4992819;28;20390;-60
2023/04/09 03:58:16;;;;;;;;;;;;;;;8.18;72.61;98823.34;4989895;28;20387;-60
2023/04/09 04:00:42;;;;;;;;;;;;;;;8.16;72.40;98827.81;4997314;28;20379;-60
2023/04/09 04:03:07;;;;;;;;;;;;;;;8.12;71.45;98825.41;5007023;28;20481;-60
2023/04/09 04:05:32;;;;;;;;;;;;;;;8.12;71.55;98835.84;5011692;28;19922;-60
2023/04/09 04:07:57;;;;;;;;;;;;;;;8.05;71.61;98824.84;5002147;28;19918;-60
2023/04/09 04:10:23;;;;;;;;;;;;;;;7.99;71.13;98826.00;4994744;28;20004;-60
2023/04/09 04:12:48;;;;;;;;;;;;;;;7.97;70.88;98827.84;4995804;28;20001;-60
2023/04/09 04:15:13;;;;;;;;;;;;;;;7.95;72.17;98827.09;4994474;28;19913;-60
2023/04/09 04:17:38;;;;;;;;;;;;;;;7.94;71.42;98834.97;4994505;28;19921;-60
2023/04/09 04:20:04;;;;;;;;;;;;;;;7.89;72.33;98831.75;4978225;28;19985;-60
2023/04/09 04:22:29;;;;;;;;;;;;;;;7.87;72.02;98825.75;4997058;28;19914;-60
2023/04/09 04:24:54;;;;;;;;;;;;;;;7.87;71.94;98830.97;5015328;28;19913;-60
2023/04/09 04:27:20;;;;;;;;;;;;;;;7.83;71.86;98836.31;5015044;28;19913;-60
2023/04/09 04:29:45;;;;;;;;;;;;;;;7.85;72.06;98839.72;4998149;28;19929;-60
2023/04/09 04:32:10;;;;;;;;;;;;;;;7.84;72.10;98847.63;4992470;28;19918;-60
2023/04/09 04:34:35;;;;;;;;;;;;;;;7.80;71.61;98843.47;5001400;28;20362;-60
2023/04/09 04:37:00;;;;;;;;;;;;;;;7.77;71.58;98847.06;5009907;28;20314;-60
2023/04/09 04:39:26;;;;;;;;;;;;;;;7.74;71.58;98847.22;5011388;28;20334;-60
2023/04/09 04:41:51;;;;;;;;;;;;;;;7.74;70.96;98852.44;4988597;28;20327;-60
2023/04/09 04:44:16;;;;;;;;;;;;;;;7.73;72.07;98858.56;5004132;28;19917;-60
2023/04/09 04:46:41;;;;;;;;;;;;;;;7.71;71.23;98857.81;5013706;28;19979;-59
2023/04/09 04:49:06;;;;;;;;;;;;;;;7.70;71.41;98861.31;5014607;28;19917;-60
2023/04/09 04:51:32;;;;;;;;;;;;;;;7.69;71.83;98864.84;4991554;28;20465;-60
2023/04/09 04:53:57;;;;;;;;;;;;;;;7.68;72.11;98857.94;5000949;28;19924;-60
